createdAt,value
2022-12-08T00:01:21.583Z,100439.66
2022-12-08T00:03:49.827Z,100435.31
2022-12-08T00:06:43.189Z,100438.41
2022-12-08T00:09:24.679Z,100437.66
2022-12-08T00:11:57.337Z,100439.16
2022-12-08T00:14:27.916Z,100431.19
2022-12-08T00:16:58.006Z,100433.50
2022-12-08T00:19:26.768Z,100428.00
2022-12-08T00:21:55.114Z,100434.88
2022-12-08T00:24:24.084Z,100426.06
2022-12-08T00:26:52.246Z,100432.50
2022-12-08T00:29:20.891Z,100423.38
2022-12-08T00:31:48.911Z,100423.59
2022-12-08T00:34:18.528Z,100410.97
2022-12-08T00:36:46.087Z,100407.47
2022-12-08T00:39:15.336Z,100408.44
2022-12-08T00:42:00.546Z,100406.00
2022-12-08T00:44:28.439Z,100402.06
2022-12-08T00:46:56.288Z,100399.28
2022-12-08T00:49:25.654Z,100400.81
2022-12-08T00:51:54.028Z,100407.34
2022-12-08T00:54:22.976Z,100406.50
2022-12-08T00:56:50.850Z,100402.53
2022-12-08T00:59:18.821Z,100398.28
2022-12-08T01:01:48.126Z,100403.72
2022-12-08T01:04:18.481Z,100406.50
2022-12-08T01:06:48.538Z,100396.09
2022-12-08T01:09:17.939Z,100407.75
2022-12-08T01:11:46.754Z,100408.38
2022-12-08T01:14:14.901Z,100398.84
2022-12-08T01:16:43.012Z,100401.50
2022-12-08T01:19:12.882Z,100404.03
2022-12-08T01:21:41.669Z,100403.06
2022-12-08T01:24:13.376Z,100399.69
2022-12-08T01:26:41.593Z,100389.81
2022-12-08T01:29:09.395Z,100388.88
2022-12-08T01:31:37.232Z,100390.16
2022-12-08T01:34:05.055Z,100382.22
2022-12-08T01:36:37.006Z,100383.09
2022-12-08T01:39:06.027Z,100383.66
2022-12-08T01:41:38.008Z,100381.25
2022-12-08T01:44:44.573Z,100369.91
2022-12-08T01:47:13.085Z,100361.25
2022-12-08T01:49:40.867Z,100360.03
2022-12-08T01:52:15.256Z,100362.69
2022-12-08T01:54:48.281Z,100358.25
2022-12-08T01:57:19.820Z,100355.97
2022-12-08T01:59:53.472Z,100359.13
2022-12-08T02:02:21.305Z,100359.00
2022-12-08T02:04:49.239Z,100351.75
2022-12-08T02:07:18.903Z,100346.78
2022-12-08T02:09:47.566Z,100338.00
2022-12-08T02:12:16.881Z,100334.38
2022-12-08T02:14:44.716Z,100329.94
2022-12-08T02:17:28.415Z,100330.06
2022-12-08T02:20:18.036Z,100330.16
2022-12-08T02:22:53.311Z,100330.25
2022-12-08T02:25:30.095Z,100329.44
2022-12-08T02:28:10.298Z,100332.34
2022-12-08T02:30:48.507Z,100327.72
2022-12-08T02:33:49.749Z,100322.41
2022-12-08T02:36:22.744Z,100322.16
2022-12-08T02:39:01.637Z,100323.66
2022-12-08T02:41:40.212Z,100322.78
2022-12-08T02:44:17.367Z,100312.19
2022-12-08T02:46:49.333Z,100309.91
2022-12-08T02:49:18.526Z,100304.78
2022-12-08T02:51:46.389Z,100299.50
2022-12-08T02:54:15.425Z,100293.75
2022-12-08T02:57:01.407Z,100292.03
2022-12-08T02:59:41.395Z,100283.59
2022-12-08T03:02:29.663Z,100288.06
2022-12-08T03:05:06.483Z,100283.97
2022-12-08T03:07:39.982Z,100284.16
2022-12-08T03:10:13.866Z,100272.56
2022-12-08T03:12:46.855Z,100277.38
2022-12-08T03:15:19.384Z,100277.63
2022-12-08T03:17:53.747Z,100277.97
2022-12-08T03:20:26.154Z,100272.75
2022-12-08T03:22:57.505Z,100267.00
2022-12-08T03:25:27.955Z,100271.09
2022-12-08T03:27:55.858Z,100266.63
2022-12-08T03:30:23.734Z,100265.16
2022-12-08T03:32:56.685Z,100256.72
2022-12-08T03:35:29.629Z,100251.13
2022-12-08T03:38:04.558Z,100252.03
2022-12-08T03:40:32.526Z,100247.47
2022-12-08T03:43:00.291Z,100244.81
2022-12-08T03:45:28.071Z,100235.66
2022-12-08T03:47:56.411Z,100233.88
2022-12-08T03:50:25.821Z,100243.91
2022-12-08T03:52:53.596Z,100236.88
2022-12-08T03:55:22.435Z,100228.25
2022-12-08T03:57:50.215Z,100224.84
2022-12-08T04:00:18.616Z,100231.13
2022-12-08T04:02:46.507Z,100223.31
2022-12-08T04:05:14.436Z,100221.38
2022-12-08T04:07:43.666Z,100217.16
2022-12-08T04:10:12.171Z,100210.78
2022-12-08T04:12:39.992Z,100207.78
2022-12-08T04:15:08.818Z,100209.94
2022-12-08T04:17:36.558Z,100209.81
2022-12-08T04:20:05.099Z,100202.94
2022-12-08T04:22:33.102Z,100205.25
2022-12-08T04:25:02.678Z,100204.03
2022-12-08T04:27:30.480Z,100212.34
2022-12-08T04:29:58.225Z,100204.16
2022-12-08T04:32:26.033Z,100207.97
2022-12-08T04:34:53.898Z,100199.66
2022-12-08T04:37:21.677Z,100210.88
2022-12-08T04:39:49.479Z,100200.72
2022-12-08T04:42:18.629Z,100196.88
2022-12-08T04:44:46.412Z,100198.81
2022-12-08T04:47:14.266Z,100196.16
2022-12-08T04:49:42.179Z,100186.28
2022-12-08T04:52:09.975Z,100195.59
2022-12-08T04:54:37.765Z,100191.97
2022-12-08T04:57:05.843Z,100187.16
2022-12-08T04:59:35.033Z,100183.06
2022-12-08T05:02:03.325Z,100181.25
2022-12-08T05:04:31.127Z,100184.41
2022-12-08T05:06:58.920Z,100185.88
2022-12-08T05:09:26.709Z,100176.69
2022-12-08T05:11:54.549Z,100181.53
2022-12-08T05:14:22.609Z,100180.91
2022-12-08T05:16:55.054Z,100174.28
2022-12-08T05:19:22.825Z,100175.97
2022-12-08T05:21:50.621Z,100174.88
2022-12-08T05:24:18.408Z,100177.66
2022-12-08T05:26:46.168Z,100175.59
2022-12-08T05:29:13.955Z,100174.53
2022-12-08T05:31:41.908Z,100171.38
2022-12-08T05:34:11.150Z,100174.41
2022-12-08T05:36:38.897Z,100173.31
2022-12-08T05:39:06.820Z,100167.31
2022-12-08T05:41:34.597Z,100164.16
2022-12-08T05:44:02.339Z,100168.25
2022-12-08T05:46:30.348Z,100162.69
2022-12-08T05:49:00.042Z,100161.28
2022-12-08T05:51:29.999Z,100171.16
2022-12-08T05:53:58.213Z,100166.31
2022-12-08T05:56:26.243Z,100168.72
2022-12-08T05:58:54.123Z,100164.25
2022-12-08T06:01:23.891Z,100153.06
2022-12-08T06:03:51.879Z,100162.94
2022-12-08T06:06:20.116Z,100149.78
2022-12-08T06:08:49.221Z,100158.59
2022-12-08T06:11:20.692Z,100159.41
2022-12-08T06:13:48.608Z,100155.09
2022-12-08T06:16:17.084Z,100153.03
2022-12-08T06:18:45.033Z,100153.25
2022-12-08T06:21:15.118Z,100153.72
2022-12-08T06:23:44.121Z,100154.13
2022-12-08T06:26:15.578Z,100158.22
2022-12-08T06:28:43.953Z,100162.06
2022-12-08T06:31:14.928Z,100156.75
2022-12-08T06:33:42.968Z,100157.84
2022-12-08T06:36:13.460Z,100167.94
2022-12-08T06:38:43.604Z,100165.66
2022-12-08T06:41:14.827Z,100162.53
2022-12-08T06:43:43.224Z,100158.78
2022-12-08T06:46:13.783Z,100156.84
2022-12-08T06:48:41.683Z,100161.16
2022-12-08T06:51:11.597Z,100157.69
2022-12-08T06:53:39.715Z,100156.84
2022-12-08T06:56:08.117Z,100158.84
2022-12-08T06:58:37.440Z,100162.50
2022-12-08T07:01:07.011Z,100161.75
2022-12-08T07:03:34.896Z,100167.78
2022-12-08T07:06:04.382Z,100167.06
2022-12-08T07:08:33.388Z,100167.66
2022-12-08T07:11:01.212Z,100166.66
2022-12-08T07:13:28.938Z,100171.25
2022-12-08T07:15:58.382Z,100171.09
2022-12-08T07:18:26.156Z,100163.00
2022-12-08T07:20:53.864Z,100170.66
2022-12-08T07:23:21.605Z,100170.97
2022-12-08T07:25:49.337Z,100164.94
2022-12-08T07:28:17.150Z,100159.75
2022-12-08T07:30:45.019Z,100166.13
2022-12-08T07:33:14.391Z,100171.91
2022-12-08T07:35:47.775Z,100165.88
2022-12-08T07:38:17.098Z,100168.38
2022-12-08T07:40:44.859Z,100168.97
2022-12-08T07:43:12.581Z,100168.97
2022-12-08T07:45:41.672Z,100167.03
2022-12-08T07:48:09.639Z,100164.03
2022-12-08T07:50:38.873Z,100158.94
2022-12-08T07:53:06.925Z,100153.03
2022-12-08T07:55:34.734Z,100160.38
2022-12-08T07:58:02.557Z,100165.25
2022-12-08T08:00:30.359Z,100164.84
2022-12-08T08:02:58.362Z,100169.91
2022-12-08T08:05:26.090Z,100178.00
2022-12-08T08:07:55.367Z,100186.56
2022-12-08T08:10:23.185Z,100184.03
2022-12-08T08:12:50.938Z,100185.84
2022-12-08T08:15:19.261Z,100184.22
2022-12-08T08:17:50.799Z,100190.53
2022-12-08T08:20:18.939Z,100183.16
2022-12-08T08:22:46.984Z,100176.16
2022-12-08T08:25:16.894Z,100168.66
2022-12-08T08:27:44.789Z,100165.84
2022-12-08T08:30:20.079Z,100169.81
2022-12-08T08:32:48.739Z,100173.47
2022-12-08T08:35:16.827Z,100160.91
2022-12-08T08:37:48.794Z,100176.03
2022-12-08T08:40:18.789Z,100172.97
2022-12-08T08:42:46.546Z,100182.31
2022-12-08T08:45:14.239Z,100175.78
2022-12-08T08:47:42.068Z,100180.22
2022-12-08T08:50:10.520Z,100179.00
2022-12-08T08:52:38.302Z,100176.22
2022-12-08T08:55:06.780Z,100177.25
2022-12-08T08:57:35.903Z,100180.50
2022-12-08T09:00:04.836Z,100170.31
2022-12-08T09:02:32.947Z,100169.47
2022-12-08T09:05:00.815Z,100166.34
2022-12-08T09:07:28.836Z,100165.00
2022-12-08T09:10:01.428Z,100169.59
2022-12-08T09:12:29.727Z,100166.09
2022-12-08T09:14:59.141Z,100157.00
2022-12-08T09:17:26.875Z,100159.69
2022-12-08T09:19:54.597Z,100156.44
2022-12-08T09:22:23.728Z,100156.88
2022-12-08T09:24:51.556Z,100153.81
2022-12-08T09:27:19.517Z,100153.75
2022-12-08T09:29:47.256Z,100152.31
2022-12-08T09:32:16.459Z,100153.94
2022-12-08T09:34:48.949Z,100153.44
2022-12-08T09:37:19.673Z,100146.56
2022-12-08T09:39:48.109Z,100142.94
2022-12-08T09:42:27.102Z,100146.56
2022-12-08T09:45:03.534Z,100149.94
2022-12-08T09:47:38.366Z,100140.28
2022-12-08T09:50:11.883Z,100140.38
2022-12-08T09:52:44.647Z,100131.44
2022-12-08T09:55:20.867Z,100141.22
2022-12-08T09:57:56.615Z,100134.50
2022-12-08T10:00:24.850Z,100137.41
2022-12-08T10:02:54.057Z,100132.50
2022-12-08T10:05:24.022Z,100134.59
2022-12-08T10:08:06.050Z,100139.50
2022-12-08T10:10:40.373Z,100131.50
2022-12-08T10:13:16.690Z,100135.88
2022-12-08T10:15:50.383Z,100125.38
2022-12-08T10:18:21.497Z,100126.91
2022-12-08T10:20:51.280Z,100130.00
2022-12-08T10:23:28.494Z,100123.59
2022-12-08T10:26:02.919Z,100130.59
2022-12-08T10:28:30.988Z,100114.38
2022-12-08T10:30:58.901Z,100116.06
2022-12-08T10:33:29.144Z,100124.31
2022-12-08T10:35:59.204Z,100119.44
2022-12-08T10:38:30.730Z,100116.09
2022-12-08T10:41:04.359Z,100113.16
2022-12-08T10:43:33.731Z,100110.69
2022-12-08T10:46:11.109Z,100112.50
2022-12-08T10:48:49.171Z,100109.13
2022-12-08T10:51:29.693Z,100102.41
2022-12-08T10:53:58.081Z,100103.22
2022-12-08T10:56:28.645Z,100102.13
2022-12-08T10:59:15.324Z,100101.56
2022-12-08T11:01:48.572Z,100096.81
2022-12-08T11:04:20.078Z,100099.34
2022-12-08T11:06:49.919Z,100101.84
2022-12-08T11:09:30.869Z,100099.03
2022-12-08T11:12:00.275Z,100092.03
2022-12-08T11:14:30.076Z,100098.19
2022-12-08T11:17:06.192Z,100087.97
2022-12-08T11:19:38.788Z,100098.28
2022-12-08T11:22:22.434Z,100102.63
2022-12-08T11:24:58.340Z,100101.50
2022-12-08T11:27:26.318Z,100102.91
2022-12-08T11:29:54.097Z,100095.16
2022-12-08T11:32:25.879Z,100104.56
2022-12-08T11:35:00.045Z,100092.50
2022-12-08T11:37:38.640Z,100097.22
2022-12-08T11:40:09.817Z,100097.19
2022-12-08T11:42:51.168Z,100097.91
2022-12-08T11:45:25.583Z,100100.56
2022-12-08T11:48:02.891Z,100107.84
2022-12-08T11:50:40.891Z,100107.00
2022-12-08T11:53:18.166Z,100106.31
2022-12-08T11:55:51.493Z,100112.41
2022-12-08T11:58:22.616Z,100104.72
2022-12-08T12:00:51.318Z,100109.19
2022-12-08T12:03:28.648Z,100108.19
2022-12-08T12:06:30.391Z,100105.34
2022-12-08T12:09:13.242Z,100103.91
2022-12-08T12:12:07.503Z,100102.50
2022-12-08T12:14:55.018Z,100108.53
2022-12-08T12:17:37.501Z,100102.69
2022-12-08T12:20:15.717Z,100103.97
2022-12-08T12:22:47.693Z,100093.50
2022-12-08T12:25:21.778Z,100092.13
2022-12-08T12:27:51.043Z,100096.31
2022-12-08T12:30:24.979Z,100095.38
2022-12-08T12:32:56.457Z,100093.41
2022-12-08T12:35:33.327Z,100093.16
2022-12-08T12:38:27.348Z,100093.28
2022-12-08T12:41:01.336Z,100102.53
2022-12-08T12:43:31.834Z,100087.84
2022-12-08T12:46:37.040Z,100090.66
2022-12-08T12:49:50.957Z,100099.84
2022-12-08T12:52:47.769Z,100098.75
2022-12-08T12:55:43.518Z,100087.13
2022-12-08T12:58:38.929Z,100087.84
2022-12-08T13:01:42.335Z,100088.41
2022-12-08T13:04:12.462Z,100087.41
2022-12-08T13:06:44.315Z,100085.19
2022-12-08T13:09:24.215Z,100085.47
2022-12-08T13:11:56.932Z,100083.66
2022-12-08T13:14:30.849Z,100090.38
2022-12-08T13:17:01.193Z,100085.91
2022-12-08T13:19:33.131Z,100096.25
2022-12-08T13:22:01.583Z,100089.63
2022-12-08T13:24:33.923Z,100084.72
2022-12-08T13:27:34.126Z,100086.94
2022-12-08T13:30:37.822Z,100088.34
2022-12-08T13:33:19.330Z,100084.16
2022-12-08T13:35:58.713Z,100082.44
2022-12-08T13:38:31.088Z,100082.31
2022-12-08T13:41:02.105Z,100083.44
2022-12-08T13:43:51.363Z,100085.13
2022-12-08T13:58:04.057Z,100093.50
2022-12-08T14:00:33.361Z,100101.06
2022-12-08T14:03:02.760Z,100097.84
2022-12-08T14:11:39.629Z,100109.19
2022-12-08T14:14:10.633Z,100109.16
2022-12-08T14:16:42.724Z,100103.16
2022-12-08T14:19:19.102Z,100109.91
2022-12-08T14:21:55.371Z,100111.97
2022-12-08T14:24:24.167Z,100099.94
2022-12-08T14:26:54.821Z,100107.94
2022-12-08T14:29:39.859Z,100115.34
2022-12-08T14:32:21.466Z,100118.28
2022-12-08T14:34:53.783Z,100116.28
2022-12-08T14:37:22.598Z,100115.75
2022-12-08T14:39:50.762Z,100121.47
2022-12-08T14:42:23.725Z,100125.38
2022-12-08T14:44:57.746Z,100124.66
2022-12-08T14:47:30.519Z,100129.00
2022-12-08T14:49:58.727Z,100126.59
2022-12-08T14:52:27.130Z,100127.31
2022-12-08T14:54:56.153Z,100130.63
2022-12-08T14:57:24.551Z,100136.66
2022-12-08T14:59:52.826Z,100131.94
2022-12-08T15:02:29.066Z,100128.56
2022-12-08T15:05:01.531Z,100127.97
2022-12-08T15:07:31.863Z,100127.53
2022-12-08T15:10:27.223Z,100132.84
2022-12-08T15:13:01.054Z,100125.00
2022-12-08T15:15:29.903Z,100120.59
2022-12-08T15:18:12.200Z,100129.75
2022-12-08T15:20:45.199Z,100127.63
2022-12-08T15:23:31.265Z,100130.72
2022-12-08T15:26:00.178Z,100127.66
2022-12-08T15:28:30.611Z,100127.81
2022-12-08T15:30:59.162Z,100138.28
2022-12-08T15:33:28.491Z,100142.56
2022-12-08T15:35:56.299Z,100154.63
2022-12-08T15:38:26.024Z,100155.84
2022-12-08T15:40:54.108Z,100157.66
2022-12-08T15:43:22.732Z,100157.78
2022-12-08T15:45:59.229Z,100153.72
2022-12-08T15:48:30.901Z,100143.91
2022-12-08T15:50:59.256Z,100147.44
2022-12-08T15:53:27.173Z,100149.38
2022-12-08T15:56:26.425Z,100153.97
2022-12-08T15:58:58.774Z,100148.91
2022-12-08T16:01:27.127Z,100152.09
2022-12-08T16:09:34.775Z,100151.06
2022-12-08T16:12:20.437Z,100159.63
2022-12-08T16:17:37.761Z,100159.75
2022-12-08T16:20:12.666Z,100162.09
2022-12-08T16:23:07.669Z,100160.47
2022-12-08T16:25:46.192Z,100174.84
2022-12-08T16:28:52.002Z,100170.50
2022-12-08T16:31:10.230Z,100172.44
2022-12-08T16:33:41.253Z,100166.81
2022-12-08T16:36:11.278Z,100177.69
2022-12-08T16:38:39.033Z,100181.41
2022-12-08T16:41:24.848Z,100171.25
2022-12-08T16:43:52.990Z,100167.66
2022-12-08T16:46:23.821Z,100173.19
2022-12-08T16:48:51.669Z,100184.19
2022-12-08T16:51:26.528Z,100167.66
2022-12-08T16:53:54.852Z,100177.16
2022-12-08T16:56:30.419Z,100172.38
2022-12-08T16:59:00.351Z,100178.50
2022-12-08T17:01:28.233Z,100180.47
2022-12-08T17:04:29.356Z,100177.81
2022-12-08T17:06:45.237Z,100177.81
2022-12-08T17:09:13.060Z,100176.63
2022-12-08T17:11:43.374Z,100187.03
2022-12-08T17:14:11.682Z,100181.00
2022-12-08T17:16:39.481Z,100183.16
2022-12-08T17:19:07.365Z,100186.31
2022-12-08T17:21:35.209Z,100180.13
2022-12-08T17:24:04.870Z,100192.06
2022-12-08T17:26:32.780Z,100192.56
2022-12-08T17:29:02.049Z,100190.03
2022-12-08T17:31:31.266Z,100199.22
2022-12-08T17:34:00.115Z,100195.84
2022-12-08T17:36:28.249Z,100193.53
2022-12-08T17:38:56.990Z,100192.34
2022-12-08T17:41:26.302Z,100195.97
2022-12-08T17:43:54.000Z,100195.72
2022-12-08T17:46:22.815Z,100203.78
2022-12-08T17:48:51.724Z,100201.16
2022-12-08T17:51:20.154Z,100199.72
2022-12-08T17:53:49.307Z,100203.56
2022-12-08T17:56:25.691Z,100204.53
2022-12-08T17:58:57.607Z,100201.28
2022-12-08T18:01:30.629Z,100204.91
2022-12-08T18:04:03.109Z,100203.34
2022-12-08T18:06:39.341Z,100207.53
2022-12-08T18:09:12.673Z,100200.19
2022-12-08T18:11:45.456Z,100204.66
2022-12-08T18:14:19.390Z,100205.50
2022-12-08T18:16:55.148Z,100200.56
2022-12-08T18:19:33.747Z,100211.66
2022-12-08T18:22:13.594Z,100207.66
2022-12-08T18:24:45.130Z,100215.03
2022-12-08T18:27:17.823Z,100211.53
2022-12-08T18:29:51.471Z,100214.41
2022-12-08T18:32:24.831Z,100217.19
2022-12-08T18:34:59.048Z,100222.22
2022-12-08T18:37:27.093Z,100221.59
2022-12-08T18:39:54.849Z,100224.38
2022-12-08T18:42:26.489Z,100226.28
2022-12-08T18:45:02.863Z,100222.94
2022-12-08T18:47:31.501Z,100229.78
2022-12-08T18:50:03.283Z,100222.50
2022-12-08T18:52:38.746Z,100224.03
2022-12-08T18:55:08.012Z,100224.06
2022-12-08T18:57:38.568Z,100228.41
2022-12-08T19:00:10.679Z,100226.81
2022-12-08T19:02:38.752Z,100234.56
2022-12-08T19:05:14.316Z,100241.56
2022-12-08T19:07:48.824Z,100247.81
2022-12-08T19:10:17.208Z,100244.22
2022-12-08T19:12:45.044Z,100238.31
2022-12-08T19:15:14.244Z,100243.81
2022-12-08T19:17:42.038Z,100249.59
2022-12-08T19:20:10.394Z,100257.97
2022-12-08T19:22:38.428Z,100259.53
2022-12-08T19:25:07.007Z,100266.41
2022-12-08T19:27:35.051Z,100273.16
2022-12-08T19:30:02.848Z,100270.47
2022-12-08T19:32:31.930Z,100266.41
2022-12-08T19:34:59.630Z,100269.53
2022-12-08T19:37:27.427Z,100271.09
2022-12-08T19:40:12.616Z,100264.31
2022-12-08T19:42:58.077Z,100271.69
2022-12-08T19:45:26.039Z,100262.53
2022-12-08T19:47:55.214Z,100267.59
2022-12-08T19:50:38.273Z,100271.47
2022-12-08T19:53:07.187Z,100275.66
2022-12-08T19:55:35.675Z,100278.06
2022-12-08T19:58:04.028Z,100275.44
2022-12-08T20:00:32.951Z,100272.50
2022-12-08T20:03:02.849Z,100277.56
2022-12-08T20:05:31.855Z,100283.94
2022-12-08T20:07:59.859Z,100285.38
2022-12-08T20:10:30.431Z,100280.81
2022-12-08T20:13:12.086Z,100278.25
2022-12-08T20:15:39.912Z,100279.34
2022-12-08T20:18:10.570Z,100276.81
2022-12-08T20:20:39.021Z,100278.50
2022-12-08T20:23:07.001Z,100285.81
2022-12-08T20:25:34.884Z,100292.63
2022-12-08T20:28:02.654Z,100281.91
2022-12-08T20:30:30.482Z,100283.47
2022-12-08T20:32:58.311Z,100289.69
2022-12-08T20:35:27.507Z,100289.53
2022-12-08T20:37:55.223Z,100291.47
2022-12-08T20:40:23.068Z,100291.94
2022-12-08T20:42:50.849Z,100294.19
2022-12-08T20:45:18.896Z,100296.94
2022-12-08T20:47:46.624Z,100298.13
2022-12-08T20:50:14.467Z,100301.00
2022-12-08T20:52:43.692Z,100305.06
2022-12-08T20:55:11.915Z,100314.66
2022-12-08T20:57:39.828Z,100308.88
2022-12-08T21:00:09.420Z,100303.19
2022-12-08T21:02:43.208Z,100306.69
2022-12-08T21:05:14.858Z,100320.22
2022-12-08T21:07:44.189Z,100321.19
2022-12-08T21:10:12.145Z,100319.59
2022-12-08T21:12:40.556Z,100325.63
2022-12-08T21:15:11.396Z,100332.00
2022-12-08T21:17:39.466Z,100327.03
2022-12-08T21:20:08.893Z,100331.50
2022-12-08T21:22:37.189Z,100341.44
2022-12-08T21:25:07.946Z,100337.72
2022-12-08T21:27:35.775Z,100334.25
2022-12-08T21:30:03.805Z,100337.59
2022-12-08T21:32:32.006Z,100336.03
2022-12-08T21:34:59.901Z,100335.94
2022-12-08T21:37:27.752Z,100346.06
2022-12-08T21:39:55.670Z,100345.66
2022-12-08T21:42:42.502Z,100353.97
2022-12-08T21:45:11.872Z,100354.94
2022-12-08T21:47:40.224Z,100341.50
2022-12-08T21:50:09.247Z,100341.38
2022-12-08T21:52:38.849Z,100341.25
2022-12-08T21:55:08.239Z,100345.31
2022-12-08T21:57:37.395Z,100341.72
2022-12-08T22:00:06.736Z,100348.56
2022-12-08T22:02:35.250Z,100345.00
2022-12-08T22:05:03.176Z,100344.03
2022-12-08T22:07:31.023Z,100351.69
2022-12-08T22:09:59.066Z,100349.75
2022-12-08T22:12:27.071Z,100356.84
2022-12-08T22:14:56.392Z,100345.19
2022-12-08T22:17:24.216Z,100346.66
2022-12-08T22:19:52.006Z,100344.03
2022-12-08T22:22:19.997Z,100351.34
2022-12-08T22:24:48.033Z,100344.63
2022-12-08T22:27:16.127Z,100340.13
2022-12-08T22:29:44.118Z,100334.84
2022-12-08T22:32:13.405Z,100336.25
2022-12-08T22:34:41.185Z,100346.09
2022-12-08T22:37:09.078Z,100350.53
2022-12-08T22:39:36.939Z,100340.72
2022-12-08T22:42:05.011Z,100344.41
2022-12-08T22:44:32.935Z,100344.28
2022-12-08T22:47:00.883Z,100345.25
2022-12-08T22:49:30.242Z,100335.81
2022-12-08T22:51:58.207Z,100341.22
2022-12-08T22:54:26.877Z,100334.59
2022-12-08T22:56:55.271Z,100339.88
2022-12-08T22:59:23.121Z,100336.50
2022-12-08T23:01:54.059Z,100341.78
2022-12-08T23:04:21.938Z,100339.44
2022-12-08T23:06:51.173Z,100342.44
2022-12-08T23:09:19.173Z,100336.63
2022-12-08T23:11:47.264Z,100332.38
2022-12-08T23:14:15.188Z,100329.00
2022-12-08T23:16:43.185Z,100344.78
2022-12-08T23:19:11.086Z,100341.78
2022-12-08T23:21:39.061Z,100339.47
2022-12-08T23:24:08.628Z,100341.91
2022-12-08T23:26:36.541Z,100341.06
2022-12-08T23:29:05.020Z,100340.13
2022-12-08T23:31:32.935Z,100344.66
2022-12-08T23:34:00.833Z,100341.06
2022-12-08T23:36:28.738Z,100351.13
2022-12-08T23:38:56.608Z,100345.91
2022-12-08T23:41:26.000Z,100346.03
2022-12-08T23:43:53.802Z,100342.66
2022-12-08T23:46:23.803Z,100348.13
2022-12-08T23:48:52.323Z,100344.75
2022-12-08T23:51:20.497Z,100338.75
2022-12-08T23:53:48.329Z,100340.56
2022-12-08T23:56:18.095Z,100344.88
2022-12-08T23:58:47.766Z,100347.09
